Time;durP1;ratioP1;P1;durP2;ratioP2;P2;SDS_P1;SDS_P2;PMS_P1;PMS_P2;Temp;Humidity;BMP_temperature;BMP_pressure;BME280_temperature;BME280_humidity;BME280_pressure;Samples;Min_cycle;Max_cycle;Signal;HPM_P1;HPM_P2
2024/01/22 00:04:35;;;;;;;;;;;16.70;55.70;;;;;;10309718;28;95443;-50
2024/01/22 00:09:37;;;;;;;;;;;16.70;55.50;;;;;;10297206;28;93431;-50
2024/01/22 00:14:39;;;;;;;;;;;16.60;55.30;;;;;;10302333;28;93562;-48
2024/01/22 00:19:41;;;;;;;;;;;16.60;55.10;;;;;;10286397;28;94769;-47
2024/01/22 00:24:43;;;;;;;;;;;16.60;54.80;;;;;;10313882;28;93532;-48
2024/01/22 00:29:48;;;;;;;;;;;16.60;54.60;;;;;;10309703;28;94465;-47
2024/01/22 00:34:50;;;;;;;;;;;16.60;54.30;;;;;;10312243;28;93347;-49
2024/01/22 00:39:55;;;;;;;;;;;16.60;54.20;;;;;;10319646;28;93732;-49
2024/01/22 00:44:57;;;;;;;;;;;16.60;54.00;;;;;;10318006;28;93674;-46
2024/01/22 00:49:58;;;;;;;;;;;16.60;54.40;;;;;;10315033;28;97299;-53
2024/01/22 00:55:00;;;;;;;;;;;16.50;55.00;;;;;;10319501;28;93425;-50
2024/01/22 01:00:02;;;;;;;;;;;16.50;55.00;;;;;;10317801;28;94712;-52
2024/01/22 01:05:04;;;;;;;;;;;16.50;55.00;;;;;;10320335;28;93938;-48
2024/01/22 01:10:07;;;;;;;;;;;16.50;54.70;;;;;;10321047;28;94000;-51
2024/01/22 01:15:09;;;;;;;;;;;16.50;54.50;;;;;;10316348;28;93429;-52
2024/01/22 01:20:11;;;;;;;;;;;16.50;54.20;;;;;;10317605;28;94670;-48
2024/01/22 01:25:12;;;;;;;;;;;16.50;54.00;;;;;;10335235;28;93722;-48
2024/01/22 01:30:14;;;;;;;;;;;16.40;53.80;;;;;;10309813;28;94326;-49
2024/01/22 01:35:16;;;;;;;;;;;16.40;53.70;;;;;;10317298;28;94133;-51
2024/01/22 01:40:18;;;;;;;;;;;16.40;53.60;;;;;;10294067;28;95686;-49
2024/01/22 01:45:20;;;;;;;;;;;16.40;54.00;;;;;;10286509;28;93795;-51
2024/01/22 01:50:22;;;;;;;;;;;16.30;54.60;;;;;;10303108;28;93882;-50
2024/01/22 01:55:24;;;;;;;;;;;16.30;54.80;;;;;;10311656;28;93599;-49
2024/01/22 02:05:54;;;;;;;;;;;16.30;54.20;;;;;;8920813;22;95195;-56
2024/01/22 02:10:55;;;;;;;;;;;16.30;54.10;;;;;;10192304;28;94193;-56
2024/01/22 02:15:57;;;;;;;;;;;16.30;53.90;;;;;;10203445;28;94022;-56
2024/01/22 02:20:59;;;;;;;;;;;16.30;53.80;;;;;;10198682;28;93367;-55
2024/01/22 02:26:00;;;;;;;;;;;16.30;53.70;;;;;;10200938;28;93494;-56
2024/01/22 02:31:03;;;;;;;;;;;16.30;53.50;;;;;;10198437;28;97502;-56
2024/01/22 02:36:05;;;;;;;;;;;16.30;53.40;;;;;;10199357;28;94429;-56
2024/01/22 02:41:06;;;;;;;;;;;16.30;54.10;;;;;;10193045;28;94886;-57
2024/01/22 02:46:08;;;;;;;;;;;16.20;54.60;;;;;;10195857;28;94286;-56
2024/01/22 02:51:10;;;;;;;;;;;16.20;54.60;;;;;;10199109;28;94728;-56
2024/01/22 02:56:16;;;;;;;;;;;16.20;54.40;;;;;;10189896;28;93797;-56
2024/01/22 03:01:18;;;;;;;;;;;16.20;54.20;;;;;;10205479;28;94422;-56
2024/01/22 03:06:20;;;;;;;;;;;16.20;53.90;;;;;;10210977;28;92888;-55
2024/01/22 03:11:23;;;;;;;;;;;16.20;53.70;;;;;;10205808;28;94669;-56
2024/01/22 03:16:24;;;;;;;;;;;16.20;53.60;;;;;;10204560;28;94476;-55
2024/01/22 03:21:26;;;;;;;;;;;16.20;53.40;;;;;;10202238;28;96842;-56
2024/01/22 03:26:28;;;;;;;;;;;16.30;53.20;;;;;;10206510;28;94197;-56
2024/01/22 03:31:32;;;;;;;;;;;16.30;53.20;;;;;;10197307;28;93468;-55
2024/01/22 03:36:35;;;;;;;;;;;16.20;53.90;;;;;;10207677;28;93884;-55
2024/01/22 03:41:36;;;;;;;;;;;16.20;54.50;;;;;;10204268;28;93582;-56
2024/01/22 03:46:38;;;;;;;;;;;16.20;54.30;;;;;;10198255;28;93350;-56
2024/01/22 03:51:40;;;;;;;;;;;16.20;54.20;;;;;;10200137;28;94531;-60
2024/01/22 03:56:43;;;;;;;;;;;16.20;53.90;;;;;;10201567;28;93982;-56
2024/01/22 04:01:45;;;;;;;;;;;16.20;53.70;;;;;;10203788;28;94911;-56
2024/01/22 04:06:47;;;;;;;;;;;16.20;53.50;;;;;;10195083;28;94169;-55
2024/01/22 04:11:49;;;;;;;;;;;16.20;53.30;;;;;;10211122;28;97111;-55
2024/01/22 04:16:51;;;;;;;;;;;16.20;53.20;;;;;;10204221;28;94694;-55
2024/01/22 04:21:53;;;;;;;;;;;16.20;53.10;;;;;;10204311;28;93869;-56
2024/01/22 04:26:55;;;;;;;;;;;16.20;53.20;;;;;;10209874;28;93574;-55
2024/01/22 04:31:57;;;;;;;;;;;16.10;53.80;;;;;;10212082;28;93639;-54
2024/01/22 04:36:58;;;;;;;;;;;16.10;54.30;;;;;;10211088;28;93394;-55
2024/01/22 04:42:00;;;;;;;;;;;16.00;54.30;;;;;;10204830;28;93499;-56
2024/01/22 04:47:02;;;;;;;;;;;16.10;54.10;;;;;;10202394;28;92650;-55
2024/01/22 04:52:04;;;;;;;;;;;16.10;53.90;;;;;;10209151;28;93485;-56
2024/01/22 04:57:05;;;;;;;;;;;16.10;53.60;;;;;;10186390;28;93376;-55
2024/01/22 05:02:07;;;;;;;;;;;16.10;53.50;;;;;;10194235;28;95897;-55
2024/01/22 05:07:09;;;;;;;;;;;16.10;53.40;;;;;;10198115;28;94244;-56
2024/01/22 05:12:11;;;;;;;;;;;16.10;53.60;;;;;;10202242;28;94822;-55
2024/01/22 05:17:13;;;;;;;;;;;16.10;53.70;;;;;;10199443;28;94556;-55
2024/01/22 05:22:15;;;;;;;;;;;16.30;53.40;;;;;;10199676;28;93820;-56
2024/01/22 05:27:17;;;;;;;;;;;16.50;53.60;;;;;;10211707;28;94603;-56
2024/01/22 05:32:19;;;;;;;;;;;16.70;53.90;;;;;;10198458;28;93386;-56
2024/01/22 05:37:21;;;;;;;;;;;16.80;53.50;;;;;;10195873;28;92755;-56
2024/01/22 05:42:22;;;;;;;;;;;17.00;53.30;;;;;;10200045;28;94078;-55
2024/01/22 05:47:24;;;;;;;;;;;17.10;53.20;;;;;;10194405;28;93386;-56
2024/01/22 05:52:26;;;;;;;;;;;17.20;53.30;;;;;;10197083;28;97096;-57
2024/01/22 05:57:28;;;;;;;;;;;17.20;54.30;;;;;;10200172;28;93438;-57
2024/01/22 06:02:30;;;;;;;;;;;17.20;54.50;;;;;;10199971;28;93420;-56
2024/01/22 06:07:32;;;;;;;;;;;17.20;54.80;;;;;;10200695;28;94721;-56
2024/01/22 06:12:34;;;;;;;;;;;17.10;54.80;;;;;;10199342;28;94274;-56
2024/01/22 06:17:36;;;;;;;;;;;17.20;54.80;;;;;;10200642;28;94319;-56
2024/01/22 06:22:38;;;;;;;;;;;17.20;54.80;;;;;;10200976;28;94531;-56
2024/01/22 06:27:42;;;;;;;;;;;17.20;54.80;;;;;;10202031;28;92998;-55
2024/01/22 06:32:44;;;;;;;;;;;17.10;54.90;;;;;;10205634;28;94466;-56
2024/01/22 06:37:46;;;;;;;;;;;17.10;55.10;;;;;;10199607;28;94732;-56
2024/01/22 06:42:48;;;;;;;;;;;17.10;55.20;;;;;;10200159;28;96917;-56
2024/01/22 06:47:50;;;;;;;;;;;17.20;55.20;;;;;;10198977;28;93596;-56
2024/01/22 06:52:52;;;;;;;;;;;17.20;55.20;;;;;;10205434;28;93678;-56
2024/01/22 06:57:53;;;;;;;;;;;17.10;55.20;;;;;;10204158;28;93591;-56
2024/01/22 07:02:57;;;;;;;;;;;17.10;55.30;;;;;;10194594;28;93089;-56
2024/01/22 07:07:59;;;;;;;;;;;17.10;55.40;;;;;;10205820;28;93660;-55
2024/01/22 07:13:01;;;;;;;;;;;17.10;55.30;;;;;;10203984;28;94341;-55
2024/01/22 07:18:02;;;;;;;;;;;17.20;55.40;;;;;;10191460;28;93338;-57
2024/01/22 07:23:05;;;;;;;;;;;17.10;56.00;;;;;;10197583;28;93518;-54
2024/01/22 07:28:06;;;;;;;;;;;17.20;56.10;;;;;;10200287;28;96331;-55
2024/01/22 07:33:08;;;;;;;;;;;17.30;56.10;;;;;;10196757;28;97363;-56
2024/01/22 07:38:10;;;;;;;;;;;17.40;56.20;;;;;;10201414;28;93611;-56
2024/01/22 07:43:12;;;;;;;;;;;17.40;56.00;;;;;;10201238;28;94433;-56
2024/01/22 07:48:14;;;;;;;;;;;17.40;55.80;;;;;;10195433;28;94058;-56
2024/01/22 07:53:17;;;;;;;;;;;17.30;55.90;;;;;;10203702;28;94065;-56
2024/01/22 07:58:19;;;;;;;;;;;17.30;56.10;;;;;;10195343;28;93915;-56
2024/01/22 08:03:22;;;;;;;;;;;17.20;56.30;;;;;;10202739;28;95307;-55
2024/01/22 08:08:27;;;;;;;;;;;17.10;56.40;;;;;;10206109;28;93546;-52
2024/01/22 08:13:30;;;;;;;;;;;17.00;56.60;;;;;;10202622;28;93449;-54
2024/01/22 08:18:31;;;;;;;;;;;17.00;56.90;;;;;;10204923;28;94451;-56
2024/01/22 08:23:33;;;;;;;;;;;16.90;57.00;;;;;;10199524;28;97134;-56
2024/01/22 08:28:35;;;;;;;;;;;16.80;57.30;;;;;;10201843;28;93181;-56
2024/01/22 08:33:37;;;;;;;;;;;16.80;57.50;;;;;;10200137;28;93932;-57
2024/01/22 08:38:39;;;;;;;;;;;16.80;57.90;;;;;;10199787;28;95261;-56
2024/01/22 08:43:41;;;;;;;;;;;16.70;58.20;;;;;;10201075;28;93529;-56
2024/01/22 08:48:44;;;;;;;;;;;16.60;58.60;;;;;;10197194;28;94472;-58
2024/01/22 08:53:46;;;;;;;;;;;16.60;59.10;;;;;;10191542;28;95579;-55
2024/01/22 08:58:48;;;;;;;;;;;16.60;58.80;;;;;;10201876;28;93963;-55
2024/01/22 09:03:49;;;;;;;;;;;16.60;58.70;;;;;;10201286;28;93435;-56
2024/01/22 09:08:51;;;;;;;;;;;16.90;58.60;;;;;;10192025;28;94370;-56
2024/01/22 09:13:53;;;;;;;;;;;17.10;58.10;;;;;;10197044;28;96858;-56
2024/01/22 09:18:57;;;;;;;;;;;17.50;58.00;;;;;;10195275;28;95661;-56
2024/01/22 09:24:01;;;;;;;;;;;17.70;57.50;;;;;;10187240;28;95375;-56
2024/01/22 09:29:03;;;;;;;;;;;18.00;56.90;;;;;;10186981;28;94206;-56
2024/01/22 09:34:05;;;;;;;;;;;18.20;56.50;;;;;;10202401;28;94790;-56
2024/01/22 09:39:07;;;;;;;;;;;18.40;56.20;;;;;;10195074;28;93427;-56
2024/01/22 09:44:09;;;;;;;;;;;18.50;55.80;;;;;;10200899;28;94567;-57
2024/01/22 09:49:11;;;;;;;;;;;18.60;55.40;;;;;;10197864;28;94327;-56
2024/01/22 09:54:22;;;;;;;;;;;18.70;55.20;;;;;;10181958;28;95063;-57
2024/01/22 09:59:26;;;;;;;;;;;18.80;55.00;;;;;;10199576;28;94548;-57
2024/01/22 10:04:28;;;;;;;;;;;18.90;54.70;;;;;;10198839;28;96820;-57
2024/01/22 10:09:30;;;;;;;;;;;18.80;54.60;;;;;;10208146;28;93489;-57
2024/01/22 10:14:37;;;;;;;;;;;18.80;54.60;;;;;;10206773;28;94040;-56
2024/01/22 10:19:39;;;;;;;;;;;18.70;54.80;;;;;;10209219;28;94791;-57
2024/01/22 10:24:41;;;;;;;;;;;18.70;54.90;;;;;;10206254;28;93371;-57
2024/01/22 10:29:44;;;;;;;;;;;18.70;54.80;;;;;;10206250;28;94010;-57
2024/01/22 10:34:53;;;;;;;;;;;18.70;54.90;;;;;;10206872;28;94759;-57
2024/01/22 10:40:03;;;;;;;;;;;18.60;55.00;;;;;;10207175;28;93873;-57
2024/01/22 10:45:07;;;;;;;;;;;18.50;55.20;;;;;;10206299;28;94120;-57
2024/01/22 10:50:09;;;;;;;;;;;18.30;55.30;;;;;;10209009;28;93421;-57
2024/01/22 10:55:11;;;;;;;;;;;18.20;55.50;;;;;;10190845;28;95704;-56
2024/01/22 11:00:14;;;;;;;;;;;18.10;55.70;;;;;;10204997;28;93483;-57
2024/01/22 11:05:16;;;;;;;;;;;18.00;55.90;;;;;;10204543;28;94906;-57
2024/01/22 11:10:18;;;;;;;;;;;17.90;56.00;;;;;;10206902;28;94537;-57
2024/01/22 11:15:20;;;;;;;;;;;17.80;56.10;;;;;;10205487;28;94431;-57
2024/01/22 11:20:23;;;;;;;;;;;17.70;56.30;;;;;;10206961;28;94645;-56
2024/01/22 11:25:25;;;;;;;;;;;17.60;56.50;;;;;;10207443;28;93519;-57
2024/01/22 11:30:27;;;;;;;;;;;17.60;56.70;;;;;;10205718;28;93808;-57
2024/01/22 11:35:29;;;;;;;;;;;17.40;56.70;;;;;;10206240;28;94476;-58
2024/01/22 11:40:47;;;;;;;;;;;17.40;56.80;;;;;;10206532;28;93506;-56
2024/01/22 11:45:53;;;;;;;;;;;17.40;57.10;;;;;;10204003;28;97029;-57
2024/01/22 11:50:58;;;;;;;;;;;17.30;57.10;;;;;;10204460;28;93522;-63
2024/01/22 11:56:01;;;;;;;;;;;17.20;57.20;;;;;;10201266;28;94097;-55
2024/01/22 12:01:05;;;;;;;;;;;17.20;57.40;;;;;;10205388;28;94863;-57
2024/01/22 12:06:07;;;;;;;;;;;17.10;57.50;;;;;;10204380;28;92618;-57
2024/01/22 12:11:11;;;;;;;;;;;17.10;57.60;;;;;;10199206;28;94447;-57
2024/01/22 12:16:17;;;;;;;;;;;17.10;57.80;;;;;;10201969;28;96355;-60
2024/01/22 12:21:20;;;;;;;;;;;17.00;57.70;;;;;;10207308;28;94449;-57
2024/01/22 12:26:23;;;;;;;;;;;17.00;57.80;;;;;;10196384;28;94590;-57
2024/01/22 12:31:25;;;;;;;;;;;16.90;58.00;;;;;;10200264;28;93472;-56
2024/01/22 12:36:28;;;;;;;;;;;16.90;58.10;;;;;;10200420;28;94948;-57
2024/01/22 12:41:31;;;;;;;;;;;16.90;58.10;;;;;;10201887;28;96475;-57
2024/01/22 12:46:33;;;;;;;;;;;16.90;58.20;;;;;;10193677;28;93541;-57
2024/01/22 12:51:34;;;;;;;;;;;16.80;58.40;;;;;;10202663;28;93454;-56
2024/01/22 12:56:36;;;;;;;;;;;16.90;58.30;;;;;;10200035;28;93473;-57
2024/01/22 13:01:38;;;;;;;;;;;16.80;59.20;;;;;;10209052;28;94166;-56
2024/01/22 13:06:42;;;;;;;;;;;16.80;58.30;;;;;;10195291;28;93353;-56
2024/01/22 13:11:45;;;;;;;;;;;16.80;58.50;;;;;;10201085;28;92336;-57
2024/01/22 13:16:48;;;;;;;;;;;16.80;58.40;;;;;;10196551;28;95959;-56
2024/01/22 13:21:50;;;;;;;;;;;16.70;58.50;;;;;;10201491;28;93956;-57
2024/01/22 13:26:51;;;;;;;;;;;16.70;58.50;;;;;;10200188;28;96806;-55
2024/01/22 13:31:53;;;;;;;;;;;16.70;58.40;;;;;;10201080;28;93419;-57
2024/01/22 13:36:56;;;;;;;;;;;16.70;58.50;;;;;;10201138;28;95735;-57
2024/01/22 13:41:57;;;;;;;;;;;16.60;58.30;;;;;;10200510;28;94407;-57
2024/01/22 13:46:59;;;;;;;;;;;16.60;58.40;;;;;;10200223;28;93313;-56
2024/01/22 13:52:04;;;;;;;;;;;16.60;58.40;;;;;;10201684;28;94523;-56
2024/01/22 13:57:08;;;;;;;;;;;16.60;58.40;;;;;;10176427;28;93412;-57
2024/01/22 14:02:10;;;;;;;;;;;16.60;58.30;;;;;;10202152;28;92791;-57
2024/01/22 14:07:12;;;;;;;;;;;16.50;58.40;;;;;;10201346;28;94570;-57
2024/01/22 14:12:14;;;;;;;;;;;16.60;58.40;;;;;;10199959;28;95233;-56
2024/01/22 14:17:16;;;;;;;;;;;16.50;58.40;;;;;;10197347;28;95861;-57
2024/01/22 14:22:23;;;;;;;;;;;16.60;58.50;;;;;;10202707;28;93389;-57
2024/01/22 14:27:25;;;;;;;;;;;16.50;58.50;;;;;;10198788;28;94503;-57
2024/01/22 14:32:28;;;;;;;;;;;16.50;58.50;;;;;;10200391;28;93450;-57
2024/01/22 14:37:30;;;;;;;;;;;16.50;58.50;;;;;;10199207;28;93410;-57
2024/01/22 14:42:34;;;;;;;;;;;16.50;58.50;;;;;;10200060;28;94906;-57
2024/01/22 14:47:36;;;;;;;;;;;16.50;58.50;;;;;;10196239;28;94586;-57
2024/01/22 14:52:37;;;;;;;;;;;16.50;58.50;;;;;;10204081;28;92708;-57
2024/01/22 14:57:39;;;;;;;;;;;16.40;58.40;;;;;;10194275;28;94182;-57
2024/01/22 15:02:41;;;;;;;;;;;16.40;58.60;;;;;;10205266;28;97108;-56
2024/01/22 15:07:43;;;;;;;;;;;16.40;58.50;;;;;;10195310;28;97391;-57
2024/01/22 15:12:45;;;;;;;;;;;16.40;58.50;;;;;;10193655;28;94444;-58
2024/01/22 15:17:47;;;;;;;;;;;16.40;58.50;;;;;;10205736;28;94567;-57
2024/01/22 15:22:49;;;;;;;;;;;16.30;58.30;;;;;;10205032;28;94148;-56
2024/01/22 15:27:51;;;;;;;;;;;16.30;58.40;;;;;;10205194;28;93421;-56
2024/01/22 15:32:53;;;;;;;;;;;16.30;58.30;;;;;;10205042;28;93814;-56
2024/01/22 15:37:57;;;;;;;;;;;16.30;58.40;;;;;;10204072;28;93448;-56
2024/01/22 15:43:00;;;;;;;;;;;16.30;58.40;;;;;;10205116;28;92745;-56
2024/01/22 15:48:02;;;;;;;;;;;16.30;58.40;;;;;;10195855;28;93956;-56
2024/01/22 15:53:05;;;;;;;;;;;16.20;58.30;;;;;;10204000;28;94451;-56
2024/01/22 15:58:07;;;;;;;;;;;16.20;58.30;;;;;;10202137;28;95733;-56
2024/01/22 16:03:09;;;;;;;;;;;16.20;58.30;;;;;;10203869;28;95606;-56
2024/01/22 16:08:11;;;;;;;;;;;16.10;58.30;;;;;;10204739;28;92917;-56
2024/01/22 16:13:13;;;;;;;;;;;16.20;58.30;;;;;;10204794;28;94536;-56
2024/01/22 16:18:17;;;;;;;;;;;16.20;58.30;;;;;;10204966;28;92600;-57
2024/01/22 16:23:19;;;;;;;;;;;16.10;58.20;;;;;;10204904;28;93388;-56
2024/01/22 16:28:21;;;;;;;;;;;16.10;58.20;;;;;;10214091;28;93484;-56
2024/01/22 16:33:24;;;;;;;;;;;16.10;58.20;;;;;;10192823;28;92568;-57
2024/01/22 16:38:26;;;;;;;;;;;16.10;58.20;;;;;;10190099;28;94501;-56
2024/01/22 16:43:28;;;;;;;;;;;16.10;58.20;;;;;;10202722;28;95884;-56
2024/01/22 16:48:30;;;;;;;;;;;16.00;58.20;;;;;;10200423;28;95985;-56
2024/01/22 16:53:33;;;;;;;;;;;16.00;58.00;;;;;;10198594;28;93531;-56
2024/01/22 16:58:34;;;;;;;;;;;16.10;57.80;;;;;;10202036;28;93485;-55
2024/01/22 17:03:37;;;;;;;;;;;16.20;57.50;;;;;;10201453;28;93599;-56
2024/01/22 17:08:42;;;;;;;;;;;16.20;57.30;;;;;;10202129;28;94326;-56
2024/01/22 17:13:44;;;;;;;;;;;16.20;57.20;;;;;;10199337;28;93459;-56
2024/01/22 17:18:46;;;;;;;;;;;16.20;57.10;;;;;;10200878;28;94703;-55
2024/01/22 17:23:49;;;;;;;;;;;16.20;57.60;;;;;;10207008;28;93834;-56
2024/01/22 17:28:51;;;;;;;;;;;16.30;61.60;;;;;;10199200;28;93467;-57
2024/01/22 17:33:54;;;;;;;;;;;16.50;60.00;;;;;;10200718;28;93110;-56
2024/01/22 17:38:56;;;;;;;;;;;16.70;59.10;;;;;;10202359;28;96647;-56
2024/01/22 17:43:58;;;;;;;;;;;17.00;58.70;;;;;;10196919;28;94629;-56
2024/01/22 17:49:00;;;;;;;;;;;17.20;58.20;;;;;;10194774;28;93395;-56
2024/01/22 17:54:02;;;;;;;;;;;17.40;57.70;;;;;;10196387;28;94432;-56
2024/01/22 17:59:04;;;;;;;;;;;17.50;57.20;;;;;;10201666;28;93522;-56
2024/01/22 18:04:06;;;;;;;;;;;17.70;56.70;;;;;;10191665;28;94496;-56
2024/01/22 18:09:08;;;;;;;;;;;17.80;56.20;;;;;;10199344;28;93502;-56
2024/01/22 18:14:10;;;;;;;;;;;17.80;55.90;;;;;;10200724;28;93943;-57
2024/01/22 18:19:14;;;;;;;;;;;17.80;55.90;;;;;;10201262;28;94421;-55
2024/01/22 18:24:16;;;;;;;;;;;17.70;55.90;;;;;;10201101;28;95416;-61
2024/01/22 18:29:18;;;;;;;;;;;17.70;55.90;;;;;;10203950;28;96808;-56
2024/01/22 18:34:20;;;;;;;;;;;17.80;55.90;;;;;;10191664;28;94408;-57
2024/01/22 18:39:22;;;;;;;;;;;17.90;55.60;;;;;;10192607;28;93751;-56
2024/01/22 18:44:24;;;;;;;;;;;18.10;55.30;;;;;;10206801;28;93482;-55
2024/01/22 18:49:26;;;;;;;;;;;18.20;54.90;;;;;;10204419;28;93328;-56
2024/01/22 18:54:29;;;;;;;;;;;18.10;54.70;;;;;;10192794;28;93799;-55
2024/01/22 18:59:30;;;;;;;;;;;18.10;54.70;;;;;;10206803;28;93059;-55
2024/01/22 19:04:32;;;;;;;;;;;18.10;54.80;;;;;;10207648;28;93413;-55
2024/01/22 19:09:34;;;;;;;;;;;18.20;54.60;;;;;;10204421;28;93349;-55
2024/01/22 19:14:36;;;;;;;;;;;18.30;54.30;;;;;;10205275;28;95772;-55
2024/01/22 19:19:38;;;;;;;;;;;18.30;54.20;;;;;;10203432;28;96389;-58
2024/01/22 19:24:41;;;;;;;;;;;18.20;54.10;;;;;;10205795;28;93416;-55
2024/01/22 19:29:43;;;;;;;;;;;18.20;54.20;;;;;;10203283;28;95997;-55
2024/01/22 19:34:44;;;;;;;;;;;18.20;54.20;;;;;;10206918;28;93722;-55
2024/01/22 19:39:46;;;;;;;;;;;18.30;54.00;;;;;;10208384;28;94068;-55
2024/01/22 19:44:48;;;;;;;;;;;18.40;53.80;;;;;;10209031;28;93780;-55
2024/01/22 19:49:50;;;;;;;;;;;18.40;53.60;;;;;;10200670;28;93459;-55
2024/01/22 19:54:52;;;;;;;;;;;18.40;53.70;;;;;;10202728;28;93878;-55
2024/01/22 19:59:54;;;;;;;;;;;18.30;53.70;;;;;;10201600;28;93686;-55
2024/01/22 20:04:55;;;;;;;;;;;18.40;53.70;;;;;;10204039;28;94984;-55
2024/01/22 20:09:57;;;;;;;;;;;18.40;53.50;;;;;;10200774;28;96423;-56
2024/01/22 20:14:59;;;;;;;;;;;18.30;53.30;;;;;;10205049;28;94046;-55
2024/01/22 20:20:01;;;;;;;;;;;18.30;53.40;;;;;;10203874;28;94481;-55
2024/01/22 20:25:03;;;;;;;;;;;18.20;53.50;;;;;;10199820;28;95181;-55
2024/01/22 20:30:07;;;;;;;;;;;18.30;53.70;;;;;;10202910;28;93443;-55
2024/01/22 20:35:09;;;;;;;;;;;18.40;54.60;;;;;;10186458;28;94951;-55
2024/01/22 20:40:11;;;;;;;;;;;18.50;53.40;;;;;;10192954;28;94737;-55
2024/01/22 20:45:13;;;;;;;;;;;18.50;53.30;;;;;;10202217;28;94365;-55
2024/01/22 20:50:15;;;;;;;;;;;18.40;53.30;;;;;;10201479;28;93211;-55
2024/01/22 20:55:17;;;;;;;;;;;18.30;53.40;;;;;;10195190;28;94858;-55
2024/01/22 21:00:19;;;;;;;;;;;18.20;53.70;;;;;;10197086;28;97197;-55
2024/01/22 21:05:21;;;;;;;;;;;18.10;54.00;;;;;;10194198;28;93419;-55
2024/01/22 21:10:25;;;;;;;;;;;18.00;54.10;;;;;;10201261;28;114025;-54
2024/01/22 21:15:27;;;;;;;;;;;17.90;54.50;;;;;;10201366;28;93380;-55
2024/01/22 21:20:29;;;;;;;;;;;17.80;54.80;;;;;;10201899;28;93499;-55
2024/01/22 21:25:31;;;;;;;;;;;17.70;55.00;;;;;;10201058;28;93350;-56
2024/01/22 21:30:32;;;;;;;;;;;17.60;55.20;;;;;;10201412;28;94728;-56
2024/01/22 21:35:34;;;;;;;;;;;17.50;55.50;;;;;;10201591;28;93154;-56
2024/01/22 21:40:36;;;;;;;;;;;17.40;55.70;;;;;;10200563;28;94855;-55
2024/01/22 21:45:38;;;;;;;;;;;17.30;55.70;;;;;;10202277;28;95997;-55
2024/01/22 21:50:40;;;;;;;;;;;17.30;55.70;;;;;;10197647;28;95996;-56
2024/01/22 21:55:42;;;;;;;;;;;17.20;56.70;;;;;;10201352;28;94595;-55
2024/01/22 22:00:44;;;;;;;;;;;17.20;55.90;;;;;;10200531;28;94169;-56
2024/01/22 22:05:46;;;;;;;;;;;17.10;55.90;;;;;;10200000;28;94659;-55
2024/01/22 22:10:50;;;;;;;;;;;17.10;55.90;;;;;;10192812;28;93426;-55
2024/01/22 22:15:52;;;;;;;;;;;17.00;55.90;;;;;;10198661;28;94140;-55
2024/01/22 22:20:54;;;;;;;;;;;17.00;55.90;;;;;;10222123;28;94911;-56
2024/01/22 22:25:57;;;;;;;;;;;17.00;55.80;;;;;;10207216;28;91988;-56
2024/01/22 22:30:59;;;;;;;;;;;16.90;55.90;;;;;;10190173;28;93785;-55
2024/01/22 22:36:01;;;;;;;;;;;16.90;55.90;;;;;;10179738;28;94877;-55
2024/01/22 22:41:03;;;;;;;;;;;16.90;55.90;;;;;;10191695;28;94915;-55
2024/01/22 22:46:04;;;;;;;;;;;16.80;55.80;;;;;;10198805;28;94639;-55
2024/01/22 22:51:06;;;;;;;;;;;16.80;55.90;;;;;;10199730;28;94068;-55
2024/01/22 22:56:08;;;;;;;;;;;16.70;56.00;;;;;;10188019;28;94278;-55
2024/01/22 23:01:10;;;;;;;;;;;16.70;56.00;;;;;;10199968;28;93636;-55
2024/01/22 23:06:12;;;;;;;;;;;16.60;56.00;;;;;;10199038;28;94210;-56
2024/01/22 23:11:14;;;;;;;;;;;16.60;56.10;;;;;;10199720;28;94546;-56
2024/01/22 23:16:15;;;;;;;;;;;16.60;55.80;;;;;;10207054;28;93712;-56
2024/01/22 23:21:17;;;;;;;;;;;16.50;55.30;;;;;;10205440;28;94806;-54
2024/01/22 23:26:19;;;;;;;;;;;16.50;55.10;;;;;;10205810;28;94009;-56
2024/01/22 23:31:21;;;;;;;;;;;16.50;54.80;;;;;;10192991;28;96861;-56
2024/01/22 23:36:27;;;;;;;;;;;16.50;54.50;;;;;;10204339;28;93334;-55
2024/01/22 23:41:30;;;;;;;;;;;16.50;54.20;;;;;;10203446;28;95731;-56
2024/01/22 23:46:31;;;;;;;;;;;16.40;53.90;;;;;;10204410;28;93558;-56
2024/01/22 23:51:33;;;;;;;;;;;16.40;53.70;;;;;;10203877;28;95310;-56
2024/01/22 23:56:36;;;;;;;;;;;16.40;54.10;;;;;;10191908;28;93572;-56
